sensor_id;sensor_type;location;lat;lon;timestamp;P1;durP1;ratioP1;P2;durP2;ratioP2
5953;SDS011;3002;42.642;24.812;2022-08-20T00:01:39;18.23;;;6.93;;
5953;SDS011;3002;42.642;24.812;2022-08-20T00:04:04;13.70;;;7.40;;
5953;SDS011;3002;42.642;24.812;2022-08-20T00:06:30;14.80;;;6.40;;
5953;SDS011;3002;42.642;24.812;2022-08-20T00:08:55;20.93;;;7.30;;
5953;SDS011;3002;42.642;24.812;2022-08-20T00:11:22;18.03;;;6.67;;
5953;SDS011;3002;42.642;24.812;2022-08-20T00:13:49;19.43;;;7.20;;
5953;SDS011;3002;42.642;24.812;2022-08-20T00:16:15;16.77;;;7.00;;
5953;SDS011;3002;42.642;24.812;2022-08-20T00:18:41;19.33;;;7.77;;
5953;SDS011;3002;42.642;24.812;2022-08-20T00:21:13;15.90;;;6.57;;
5953;SDS011;3002;42.642;24.812;2022-08-20T00:23:39;15.60;;;7.13;;
5953;SDS011;3002;42.642;24.812;2022-08-20T00:26:05;19.77;;;6.77;;
5953;SDS011;3002;42.642;24.812;2022-08-20T00:28:31;19.50;;;7.60;;
5953;SDS011;3002;42.642;24.812;2022-08-20T00:30:57;23.93;;;8.60;;
5953;SDS011;3002;42.642;24.812;2022-08-20T00:33:22;13.67;;;6.50;;
5953;SDS011;3002;42.642;24.812;2022-08-20T00:35:49;16.30;;;6.23;;
5953;SDS011;3002;42.642;24.812;2022-08-20T00:38:15;17.00;;;6.90;;
5953;SDS011;3002;42.642;24.812;2022-08-20T00:40:52;17.47;;;7.00;;
5953;SDS011;3002;42.642;24.812;2022-08-20T00:45:49;14.53;;;6.07;;
5953;SDS011;3002;42.642;24.812;2022-08-20T00:48:19;17.93;;;7.00;;
5953;SDS011;3002;42.642;24.812;2022-08-20T00:50:44;18.10;;;6.30;;
5953;SDS011;3002;42.642;24.812;2022-08-20T00:53:10;16.20;;;6.97;;
5953;SDS011;3002;42.642;24.812;2022-08-20T00:55:35;21.10;;;7.60;;
5953;SDS011;3002;42.642;24.812;2022-08-20T00:58:03;26.67;;;7.43;;
5953;SDS011;3002;42.642;24.812;2022-08-20T01:00:36;16.90;;;7.00;;
5953;SDS011;3002;42.642;24.812;2022-08-20T01:03:02;19.03;;;6.60;;
5953;SDS011;3002;42.642;24.812;2022-08-20T01:05:28;19.23;;;7.53;;
5953;SDS011;3002;42.642;24.812;2022-08-20T01:07:54;27.00;;;8.53;;
5953;SDS011;3002;42.642;24.812;2022-08-20T01:10:21;22.13;;;8.20;;
5953;SDS011;3002;42.642;24.812;2022-08-20T01:12:47;19.23;;;7.53;;
5953;SDS011;3002;42.642;24.812;2022-08-20T01:15:14;20.50;;;6.80;;
5953;SDS011;3002;42.642;24.812;2022-08-20T01:17:42;24.87;;;8.03;;
5953;SDS011;3002;42.642;24.812;2022-08-20T01:20:11;21.30;;;8.33;;
5953;SDS011;3002;42.642;24.812;2022-08-20T01:26:07;16.43;;;7.80;;
5953;SDS011;3002;42.642;24.812;2022-08-20T01:28:13;16.47;;;5.80;;
5953;SDS011;3002;42.642;24.812;2022-08-20T01:30:40;18.47;;;7.20;;
5953;SDS011;3002;42.642;24.812;2022-08-20T01:33:06;21.53;;;7.57;;
5953;SDS011;3002;42.642;24.812;2022-08-20T01:35:38;20.77;;;7.67;;
5953;SDS011;3002;42.642;24.812;2022-08-20T01:38:04;21.80;;;7.37;;
5953;SDS011;3002;42.642;24.812;2022-08-20T01:43:13;16.60;;;7.77;;
5953;SDS011;3002;42.642;24.812;2022-08-20T01:45:39;24.67;;;8.53;;
5953;SDS011;3002;42.642;24.812;2022-08-20T01:48:04;31.10;;;7.97;;
5953;SDS011;3002;42.642;24.812;2022-08-20T01:50:30;20.77;;;7.20;;
5953;SDS011;3002;42.642;24.812;2022-08-20T01:53:05;29.40;;;9.40;;
5953;SDS011;3002;42.642;24.812;2022-08-20T01:55:32;13.93;;;6.40;;
5953;SDS011;3002;42.642;24.812;2022-08-20T01:57:58;28.87;;;8.77;;
5953;SDS011;3002;42.642;24.812;2022-08-20T02:00:24;14.93;;;6.80;;
5953;SDS011;3002;42.642;24.812;2022-08-20T02:02:50;17.93;;;7.00;;
5953;SDS011;3002;42.642;24.812;2022-08-20T02:05:16;18.73;;;7.17;;
5953;SDS011;3002;42.642;24.812;2022-08-20T02:07:41;17.57;;;7.47;;
5953;SDS011;3002;42.642;24.812;2022-08-20T02:10:07;19.67;;;7.20;;
5953;SDS011;3002;42.642;24.812;2022-08-20T02:12:33;18.77;;;6.43;;
5953;SDS011;3002;42.642;24.812;2022-08-20T02:14:59;18.97;;;6.60;;
5953;SDS011;3002;42.642;24.812;2022-08-20T02:17:25;17.20;;;6.67;;
5953;SDS011;3002;42.642;24.812;2022-08-20T02:19:52;20.57;;;7.63;;
5953;SDS011;3002;42.642;24.812;2022-08-20T02:25:03;21.20;;;7.80;;
5953;SDS011;3002;42.642;24.812;2022-08-20T02:27:29;19.83;;;7.83;;
5953;SDS011;3002;42.642;24.812;2022-08-20T02:29:54;27.20;;;9.20;;
5953;SDS011;3002;42.642;24.812;2022-08-20T02:32:20;20.97;;;8.00;;
5953;SDS011;3002;42.642;24.812;2022-08-20T02:34:45;39.13;;;11.10;;
5953;SDS011;3002;42.642;24.812;2022-08-20T02:37:10;21.60;;;8.73;;
5953;SDS011;3002;42.642;24.812;2022-08-20T02:39:41;24.77;;;7.83;;
5953;SDS011;3002;42.642;24.812;2022-08-20T02:42:06;23.27;;;8.43;;
5953;SDS011;3002;42.642;24.812;2022-08-20T02:44:31;17.17;;;8.20;;
5953;SDS011;3002;42.642;24.812;2022-08-20T02:46:57;20.93;;;9.57;;
5953;SDS011;3002;42.642;24.812;2022-08-20T02:49:22;21.07;;;8.63;;
5953;SDS011;3002;42.642;24.812;2022-08-20T02:51:59;16.57;;;7.97;;
5953;SDS011;3002;42.642;24.812;2022-08-20T02:54:25;18.33;;;8.53;;
5953;SDS011;3002;42.642;24.812;2022-08-20T02:56:50;20.47;;;7.40;;
5953;SDS011;3002;42.642;24.812;2022-08-20T02:59:16;25.07;;;7.83;;
5953;SDS011;3002;42.642;24.812;2022-08-20T03:01:42;22.23;;;7.97;;
5953;SDS011;3002;42.642;24.812;2022-08-20T03:04:08;20.07;;;6.93;;
5953;SDS011;3002;42.642;24.812;2022-08-20T03:06:33;28.33;;;8.80;;
5953;SDS011;3002;42.642;24.812;2022-08-20T03:08:58;18.20;;;7.90;;
5953;SDS011;3002;42.642;24.812;2022-08-20T03:11:24;16.40;;;6.80;;
5953;SDS011;3002;42.642;24.812;2022-08-20T03:13:50;23.27;;;7.83;;
5953;SDS011;3002;42.642;24.812;2022-08-20T03:16:16;33.77;;;7.90;;
5953;SDS011;3002;42.642;24.812;2022-08-20T03:18:43;25.63;;;7.30;;
5953;SDS011;3002;42.642;24.812;2022-08-20T03:21:09;24.60;;;8.00;;
5953;SDS011;3002;42.642;24.812;2022-08-20T03:23:35;15.80;;;7.37;;
5953;SDS011;3002;42.642;24.812;2022-08-20T03:26:03;22.93;;;7.77;;
5953;SDS011;3002;42.642;24.812;2022-08-20T03:28:28;22.40;;;7.77;;
5953;SDS011;3002;42.642;24.812;2022-08-20T03:30:54;26.30;;;7.90;;
5953;SDS011;3002;42.642;24.812;2022-08-20T03:33:20;37.33;;;10.00;;
5953;SDS011;3002;42.642;24.812;2022-08-20T03:35:46;28.57;;;8.13;;
5953;SDS011;3002;42.642;24.812;2022-08-20T03:38:12;27.53;;;7.80;;
5953;SDS011;3002;42.642;24.812;2022-08-20T03:40:38;19.30;;;8.70;;
5953;SDS011;3002;42.642;24.812;2022-08-20T03:43:05;17.80;;;7.40;;
5953;SDS011;3002;42.642;24.812;2022-08-20T03:45:32;18.47;;;7.23;;
5953;SDS011;3002;42.642;24.812;2022-08-20T03:47:58;20.07;;;7.50;;
5953;SDS011;3002;42.642;24.812;2022-08-20T03:50:26;19.10;;;6.93;;
5953;SDS011;3002;42.642;24.812;2022-08-20T03:52:53;20.50;;;7.77;;
5953;SDS011;3002;42.642;24.812;2022-08-20T03:55:18;26.10;;;7.73;;
5953;SDS011;3002;42.642;24.812;2022-08-20T03:57:45;20.17;;;7.83;;
5953;SDS011;3002;42.642;24.812;2022-08-20T04:00:12;24.70;;;8.30;;
5953;SDS011;3002;42.642;24.812;2022-08-20T04:02:38;16.87;;;7.77;;
5953;SDS011;3002;42.642;24.812;2022-08-20T04:05:04;29.53;;;9.40;;
5953;SDS011;3002;42.642;24.812;2022-08-20T04:07:30;19.47;;;8.77;;
5953;SDS011;3002;42.642;24.812;2022-08-20T04:09:55;31.87;;;9.00;;
5953;SDS011;3002;42.642;24.812;2022-08-20T04:12:21;31.40;;;8.80;;
5953;SDS011;3002;42.642;24.812;2022-08-20T04:14:47;25.33;;;8.60;;
5953;SDS011;3002;42.642;24.812;2022-08-20T04:17:15;28.03;;;9.77;;
5953;SDS011;3002;42.642;24.812;2022-08-20T04:19:40;21.27;;;8.03;;
5953;SDS011;3002;42.642;24.812;2022-08-20T04:22:06;17.93;;;7.73;;
5953;SDS011;3002;42.642;24.812;2022-08-20T04:24:32;26.00;;;8.63;;
5953;SDS011;3002;42.642;24.812;2022-08-20T04:26:57;24.90;;;10.23;;
5953;SDS011;3002;42.642;24.812;2022-08-20T04:29:23;20.10;;;9.17;;
5953;SDS011;3002;42.642;24.812;2022-08-20T04:31:50;24.07;;;8.77;;
5953;SDS011;3002;42.642;24.812;2022-08-20T04:34:16;19.63;;;9.97;;
5953;SDS011;3002;42.642;24.812;2022-08-20T04:36:43;19.27;;;8.50;;
5953;SDS011;3002;42.642;24.812;2022-08-20T04:39:09;23.60;;;8.93;;
5953;SDS011;3002;42.642;24.812;2022-08-20T04:41:34;21.03;;;8.40;;
5953;SDS011;3002;42.642;24.812;2022-08-20T04:44:00;33.60;;;9.83;;
5953;SDS011;3002;42.642;24.812;2022-08-20T04:46:26;30.17;;;8.33;;
5953;SDS011;3002;42.642;24.812;2022-08-20T04:48:53;36.10;;;10.00;;
5953;SDS011;3002;42.642;24.812;2022-08-20T04:51:18;26.03;;;9.70;;
5953;SDS011;3002;42.642;24.812;2022-08-20T04:53:44;26.60;;;9.20;;
5953;SDS011;3002;42.642;24.812;2022-08-20T04:56:09;27.90;;;8.53;;
5953;SDS011;3002;42.642;24.812;2022-08-20T04:58:36;24.13;;;9.43;;
5953;SDS011;3002;42.642;24.812;2022-08-20T05:01:04;78.13;;;11.97;;
5953;SDS011;3002;42.642;24.812;2022-08-20T05:03:30;31.47;;;8.67;;
5953;SDS011;3002;42.642;24.812;2022-08-20T05:05:57;34.77;;;9.93;;
5953;SDS011;3002;42.642;24.812;2022-08-20T05:08:23;25.90;;;9.27;;
5953;SDS011;3002;42.642;24.812;2022-08-20T05:10:49;20.33;;;7.33;;
5953;SDS011;3002;42.642;24.812;2022-08-20T05:13:15;22.40;;;7.70;;
5953;SDS011;3002;42.642;24.812;2022-08-20T05:15:40;28.57;;;9.17;;
5953;SDS011;3002;42.642;24.812;2022-08-20T05:18:06;58.97;;;10.10;;
5953;SDS011;3002;42.642;24.812;2022-08-20T05:20:33;26.73;;;9.30;;
5953;SDS011;3002;42.642;24.812;2022-08-20T05:22:59;18.30;;;8.00;;
5953;SDS011;3002;42.642;24.812;2022-08-20T05:25:25;39.97;;;9.70;;
5953;SDS011;3002;42.642;24.812;2022-08-20T05:27:57;25.67;;;9.50;;
5953;SDS011;3002;42.642;24.812;2022-08-20T05:30:24;26.67;;;9.23;;
5953;SDS011;3002;42.642;24.812;2022-08-20T05:32:50;23.23;;;8.00;;
5953;SDS011;3002;42.642;24.812;2022-08-20T05:35:15;23.30;;;8.47;;
5953;SDS011;3002;42.642;24.812;2022-08-20T05:37:41;26.37;;;7.80;;
5953;SDS011;3002;42.642;24.812;2022-08-20T05:40:09;17.23;;;7.67;;
5953;SDS011;3002;42.642;24.812;2022-08-20T05:42:35;27.30;;;8.90;;
5953;SDS011;3002;42.642;24.812;2022-08-20T05:45:02;24.57;;;9.13;;
5953;SDS011;3002;42.642;24.812;2022-08-20T05:47:27;16.37;;;6.90;;
5953;SDS011;3002;42.642;24.812;2022-08-20T05:49:53;25.30;;;8.90;;
5953;SDS011;3002;42.642;24.812;2022-08-20T05:52:18;29.00;;;8.40;;
5953;SDS011;3002;42.642;24.812;2022-08-20T05:54:44;23.10;;;8.03;;
5953;SDS011;3002;42.642;24.812;2022-08-20T05:57:09;18.10;;;7.23;;
5953;SDS011;3002;42.642;24.812;2022-08-20T05:59:35;16.07;;;6.60;;
5953;SDS011;3002;42.642;24.812;2022-08-20T06:02:00;24.47;;;7.60;;
5953;SDS011;3002;42.642;24.812;2022-08-20T06:04:46;33.70;;;8.03;;
5953;SDS011;3002;42.642;24.812;2022-08-20T06:07:11;20.50;;;7.50;;
5953;SDS011;3002;42.642;24.812;2022-08-20T06:09:36;27.50;;;7.70;;
5953;SDS011;3002;42.642;24.812;2022-08-20T06:12:03;28.10;;;6.63;;
5953;SDS011;3002;42.642;24.812;2022-08-20T06:14:28;17.83;;;7.57;;
5953;SDS011;3002;42.642;24.812;2022-08-20T06:16:54;32.53;;;8.10;;
5953;SDS011;3002;42.642;24.812;2022-08-20T06:19:19;20.23;;;6.50;;
5953;SDS011;3002;42.642;24.812;2022-08-20T06:21:45;19.70;;;7.57;;
5953;SDS011;3002;42.642;24.812;2022-08-20T06:24:10;31.37;;;7.43;;
5953;SDS011;3002;42.642;24.812;2022-08-20T06:26:35;24.00;;;8.27;;
5953;SDS011;3002;42.642;24.812;2022-08-20T06:29:02;21.53;;;7.30;;
5953;SDS011;3002;42.642;24.812;2022-08-20T06:31:27;21.67;;;7.13;;
5953;SDS011;3002;42.642;24.812;2022-08-20T06:33:52;22.57;;;7.47;;
5953;SDS011;3002;42.642;24.812;2022-08-20T06:36:18;22.90;;;6.67;;
5953;SDS011;3002;42.642;24.812;2022-08-20T06:38:43;25.37;;;7.13;;
5953;SDS011;3002;42.642;24.812;2022-08-20T06:41:10;26.90;;;7.27;;
5953;SDS011;3002;42.642;24.812;2022-08-20T06:43:35;18.80;;;7.30;;
5953;SDS011;3002;42.642;24.812;2022-08-20T06:46:00;25.43;;;7.07;;
5953;SDS011;3002;42.642;24.812;2022-08-20T06:48:26;22.90;;;6.93;;
5953;SDS011;3002;42.642;24.812;2022-08-20T06:50:51;31.73;;;8.40;;
5953;SDS011;3002;42.642;24.812;2022-08-20T06:53:18;16.33;;;6.53;;
5953;SDS011;3002;42.642;24.812;2022-08-20T06:55:45;16.43;;;5.83;;
5953;SDS011;3002;42.642;24.812;2022-08-20T06:58:12;20.60;;;6.27;;
5953;SDS011;3002;42.642;24.812;2022-08-20T07:00:39;18.17;;;6.70;;
5953;SDS011;3002;42.642;24.812;2022-08-20T07:03:06;23.07;;;7.80;;
5953;SDS011;3002;42.642;24.812;2022-08-20T07:05:34;25.30;;;6.40;;
5953;SDS011;3002;42.642;24.812;2022-08-20T07:08:00;18.37;;;7.13;;
5953;SDS011;3002;42.642;24.812;2022-08-20T07:10:26;18.40;;;6.83;;
5953;SDS011;3002;42.642;24.812;2022-08-20T07:12:51;20.57;;;7.10;;
5953;SDS011;3002;42.642;24.812;2022-08-20T07:15:17;16.40;;;6.20;;
5953;SDS011;3002;42.642;24.812;2022-08-20T07:17:47;24.00;;;7.60;;
5953;SDS011;3002;42.642;24.812;2022-08-20T07:20:13;21.53;;;7.37;;
5953;SDS011;3002;42.642;24.812;2022-08-20T07:22:39;21.50;;;7.33;;
5953;SDS011;3002;42.642;24.812;2022-08-20T07:25:09;19.23;;;6.77;;
5953;SDS011;3002;42.642;24.812;2022-08-20T07:27:35;21.83;;;6.23;;
5953;SDS011;3002;42.642;24.812;2022-08-20T07:30:03;18.53;;;7.17;;
5953;SDS011;3002;42.642;24.812;2022-08-20T07:32:47;18.63;;;7.07;;
5953;SDS011;3002;42.642;24.812;2022-08-20T07:35:14;19.70;;;7.10;;
5953;SDS011;3002;42.642;24.812;2022-08-20T07:37:41;18.63;;;6.90;;
5953;SDS011;3002;42.642;24.812;2022-08-20T07:40:08;19.93;;;7.33;;
5953;SDS011;3002;42.642;24.812;2022-08-20T07:42:35;15.97;;;6.90;;
5953;SDS011;3002;42.642;24.812;2022-08-20T07:45:13;16.07;;;6.70;;
5953;SDS011;3002;42.642;24.812;2022-08-20T07:47:40;17.87;;;7.57;;
5953;SDS011;3002;42.642;24.812;2022-08-20T07:50:06;20.67;;;6.80;;
5953;SDS011;3002;42.642;24.812;2022-08-20T07:52:32;24.10;;;7.00;;
5953;SDS011;3002;42.642;24.812;2022-08-20T07:55:05;15.43;;;6.57;;
5953;SDS011;3002;42.642;24.812;2022-08-20T07:57:31;16.57;;;6.43;;
5953;SDS011;3002;42.642;24.812;2022-08-20T07:59:56;28.13;;;6.30;;
5953;SDS011;3002;42.642;24.812;2022-08-20T08:02:23;22.27;;;7.57;;
5953;SDS011;3002;42.642;24.812;2022-08-20T08:04:49;17.83;;;6.07;;
5953;SDS011;3002;42.642;24.812;2022-08-20T08:07:14;19.73;;;6.60;;
5953;SDS011;3002;42.642;24.812;2022-08-20T08:09:40;26.17;;;6.80;;
5953;SDS011;3002;42.642;24.812;2022-08-20T08:12:08;26.83;;;6.20;;
5953;SDS011;3002;42.642;24.812;2022-08-20T08:14:33;20.63;;;5.90;;
5953;SDS011;3002;42.642;24.812;2022-08-20T08:17:00;22.90;;;6.20;;
5953;SDS011;3002;42.642;24.812;2022-08-20T08:19:26;39.53;;;9.87;;
5953;SDS011;3002;42.642;24.812;2022-08-20T08:21:57;25.73;;;6.77;;
5953;SDS011;3002;42.642;24.812;2022-08-20T08:24:22;25.27;;;6.67;;
5953;SDS011;3002;42.642;24.812;2022-08-20T08:26:48;29.77;;;5.77;;
5953;SDS011;3002;42.642;24.812;2022-08-20T08:29:16;20.70;;;6.60;;
5953;SDS011;3002;42.642;24.812;2022-08-20T08:31:42;16.03;;;6.33;;
5953;SDS011;3002;42.642;24.812;2022-08-20T08:34:07;15.20;;;5.90;;
5953;SDS011;3002;42.642;24.812;2022-08-20T08:36:33;16.37;;;6.67;;
5953;SDS011;3002;42.642;24.812;2022-08-20T08:38:58;17.07;;;6.50;;
5953;SDS011;3002;42.642;24.812;2022-08-20T08:41:25;29.43;;;7.60;;
5953;SDS011;3002;42.642;24.812;2022-08-20T08:43:53;22.93;;;6.17;;
5953;SDS011;3002;42.642;24.812;2022-08-20T08:46:24;41.23;;;6.77;;
5953;SDS011;3002;42.642;24.812;2022-08-20T08:48:51;20.20;;;6.27;;
5953;SDS011;3002;42.642;24.812;2022-08-20T08:51:52;25.00;;;6.20;;
5953;SDS011;3002;42.642;24.812;2022-08-20T08:54:12;19.53;;;6.07;;
5953;SDS011;3002;42.642;24.812;2022-08-20T08:56:40;22.37;;;5.60;;
5953;SDS011;3002;42.642;24.812;2022-08-20T08:59:07;19.07;;;6.13;;
5953;SDS011;3002;42.642;24.812;2022-08-20T09:01:33;13.40;;;5.40;;
5953;SDS011;3002;42.642;24.812;2022-08-20T09:04:00;25.00;;;5.37;;
5953;SDS011;3002;42.642;24.812;2022-08-20T09:06:26;24.90;;;6.47;;
5953;SDS011;3002;42.642;24.812;2022-08-20T09:08:57;22.17;;;5.90;;
5953;SDS011;3002;42.642;24.812;2022-08-20T09:11:23;23.70;;;6.97;;
5953;SDS011;3002;42.642;24.812;2022-08-20T09:13:49;20.17;;;5.33;;
5953;SDS011;3002;42.642;24.812;2022-08-20T09:16:14;19.20;;;5.20;;
5953;SDS011;3002;42.642;24.812;2022-08-20T09:18:39;19.23;;;5.30;;
5953;SDS011;3002;42.642;24.812;2022-08-20T09:21:05;15.90;;;5.07;;
5953;SDS011;3002;42.642;24.812;2022-08-20T09:23:31;17.87;;;5.70;;
5953;SDS011;3002;42.642;24.812;2022-08-20T09:25:56;22.17;;;5.97;;
5953;SDS011;3002;42.642;24.812;2022-08-20T09:28:22;13.60;;;5.50;;
5953;SDS011;3002;42.642;24.812;2022-08-20T09:30:47;17.17;;;5.47;;
5953;SDS011;3002;42.642;24.812;2022-08-20T09:33:13;24.20;;;7.30;;
5953;SDS011;3002;42.642;24.812;2022-08-20T09:35:38;18.00;;;6.53;;
5953;SDS011;3002;42.642;24.812;2022-08-20T09:38:04;30.30;;;7.90;;
5953;SDS011;3002;42.642;24.812;2022-08-20T09:40:30;25.63;;;8.07;;
5953;SDS011;3002;42.642;24.812;2022-08-20T09:42:55;22.47;;;5.17;;
5953;SDS011;3002;42.642;24.812;2022-08-20T09:45:20;14.77;;;5.57;;
5953;SDS011;3002;42.642;24.812;2022-08-20T09:47:46;16.77;;;5.33;;
5953;SDS011;3002;42.642;24.812;2022-08-20T09:50:11;14.20;;;5.97;;
5953;SDS011;3002;42.642;24.812;2022-08-20T09:52:38;19.13;;;4.80;;
5953;SDS011;3002;42.642;24.812;2022-08-20T09:55:29;19.43;;;6.03;;
5953;SDS011;3002;42.642;24.812;2022-08-20T09:57:50;17.70;;;5.63;;
5953;SDS011;3002;42.642;24.812;2022-08-20T10:00:16;16.30;;;5.07;;
5953;SDS011;3002;42.642;24.812;2022-08-20T10:02:42;11.93;;;4.63;;
5953;SDS011;3002;42.642;24.812;2022-08-20T10:05:08;15.77;;;5.33;;
5953;SDS011;3002;42.642;24.812;2022-08-20T10:07:33;14.70;;;5.00;;
5953;SDS011;3002;42.642;24.812;2022-08-20T10:09:59;25.83;;;6.63;;
5953;SDS011;3002;42.642;24.812;2022-08-20T10:12:25;14.73;;;5.57;;
5953;SDS011;3002;42.642;24.812;2022-08-20T10:14:50;14.27;;;5.10;;
5953;SDS011;3002;42.642;24.812;2022-08-20T10:17:15;14.80;;;5.90;;
5953;SDS011;3002;42.642;24.812;2022-08-20T10:19:41;15.53;;;5.40;;
5953;SDS011;3002;42.642;24.812;2022-08-20T10:22:06;16.13;;;4.77;;
5953;SDS011;3002;42.642;24.812;2022-08-20T10:24:32;24.60;;;6.80;;
5953;SDS011;3002;42.642;24.812;2022-08-20T10:26:58;15.03;;;5.30;;
5953;SDS011;3002;42.642;24.812;2022-08-20T10:29:24;11.00;;;4.77;;
5953;SDS011;3002;42.642;24.812;2022-08-20T10:31:50;17.33;;;5.30;;
5953;SDS011;3002;42.642;24.812;2022-08-20T10:34:15;11.00;;;5.33;;
5953;SDS011;3002;42.642;24.812;2022-08-20T10:36:41;18.87;;;5.23;;
5953;SDS011;3002;42.642;24.812;2022-08-20T10:39:07;11.17;;;4.50;;
5953;SDS011;3002;42.642;24.812;2022-08-20T10:41:32;22.37;;;5.40;;
5953;SDS011;3002;42.642;24.812;2022-08-20T10:43:57;10.30;;;5.10;;
5953;SDS011;3002;42.642;24.812;2022-08-20T10:46:22;11.73;;;4.27;;
5953;SDS011;3002;42.642;24.812;2022-08-20T10:48:48;13.63;;;5.77;;
5953;SDS011;3002;42.642;24.812;2022-08-20T10:51:13;14.80;;;5.20;;
5953;SDS011;3002;42.642;24.812;2022-08-20T10:53:39;12.77;;;4.13;;
5953;SDS011;3002;42.642;24.812;2022-08-20T10:56:04;16.60;;;5.50;;
5953;SDS011;3002;42.642;24.812;2022-08-20T10:58:30;18.00;;;5.73;;
5953;SDS011;3002;42.642;24.812;2022-08-20T11:00:55;15.33;;;4.77;;
5953;SDS011;3002;42.642;24.812;2022-08-20T11:03:20;10.97;;;5.03;;
5953;SDS011;3002;42.642;24.812;2022-08-20T11:05:46;13.23;;;4.40;;
5953;SDS011;3002;42.642;24.812;2022-08-20T11:08:11;18.70;;;4.73;;
5953;SDS011;3002;42.642;24.812;2022-08-20T11:10:37;11.90;;;4.80;;
5953;SDS011;3002;42.642;24.812;2022-08-20T11:13:03;12.97;;;4.57;;
5953;SDS011;3002;42.642;24.812;2022-08-20T11:15:29;11.43;;;4.20;;
5953;SDS011;3002;42.642;24.812;2022-08-20T11:17:54;10.70;;;5.37;;
5953;SDS011;3002;42.642;24.812;2022-08-20T11:20:21;17.73;;;5.83;;
5953;SDS011;3002;42.642;24.812;2022-08-20T11:22:48;11.57;;;4.97;;
5953;SDS011;3002;42.642;24.812;2022-08-20T11:25:13;25.57;;;6.30;;
5953;SDS011;3002;42.642;24.812;2022-08-20T11:27:43;11.63;;;4.97;;
5953;SDS011;3002;42.642;24.812;2022-08-20T11:30:10;12.40;;;4.70;;
5953;SDS011;3002;42.642;24.812;2022-08-20T11:32:36;13.43;;;4.50;;
5953;SDS011;3002;42.642;24.812;2022-08-20T11:35:01;14.63;;;5.10;;
5953;SDS011;3002;42.642;24.812;2022-08-20T11:37:27;12.53;;;4.47;;
5953;SDS011;3002;42.642;24.812;2022-08-20T11:39:52;9.80;;;4.20;;
5953;SDS011;3002;42.642;24.812;2022-08-20T11:42:18;14.43;;;4.80;;
5953;SDS011;3002;42.642;24.812;2022-08-20T11:44:43;9.07;;;4.63;;
5953;SDS011;3002;42.642;24.812;2022-08-20T11:47:09;16.60;;;5.33;;
5953;SDS011;3002;42.642;24.812;2022-08-20T11:49:37;11.03;;;4.87;;
5953;SDS011;3002;42.642;24.812;2022-08-20T11:52:03;14.23;;;5.07;;
5953;SDS011;3002;42.642;24.812;2022-08-20T11:54:28;14.67;;;4.80;;
5953;SDS011;3002;42.642;24.812;2022-08-20T11:56:55;20.00;;;6.00;;
5953;SDS011;3002;42.642;24.812;2022-08-20T11:59:22;13.23;;;4.87;;
5953;SDS011;3002;42.642;24.812;2022-08-20T12:01:47;11.83;;;4.80;;
5953;SDS011;3002;42.642;24.812;2022-08-20T12:04:13;18.87;;;5.73;;
5953;SDS011;3002;42.642;24.812;2022-08-20T12:06:38;10.13;;;4.90;;
5953;SDS011;3002;42.642;24.812;2022-08-20T12:09:03;10.60;;;4.47;;
5953;SDS011;3002;42.642;24.812;2022-08-20T12:11:29;8.97;;;4.90;;
5953;SDS011;3002;42.642;24.812;2022-08-20T12:13:54;17.53;;;5.60;;
5953;SDS011;3002;42.642;24.812;2022-08-20T12:16:19;8.03;;;4.93;;
5953;SDS011;3002;42.642;24.812;2022-08-20T12:18:45;20.67;;;5.40;;
5953;SDS011;3002;42.642;24.812;2022-08-20T12:21:11;14.17;;;5.20;;
5953;SDS011;3002;42.642;24.812;2022-08-20T12:23:36;18.10;;;4.63;;
5953;SDS011;3002;42.642;24.812;2022-08-20T12:26:02;10.07;;;5.07;;
5953;SDS011;3002;42.642;24.812;2022-08-20T12:28:28;13.17;;;5.53;;
5953;SDS011;3002;42.642;24.812;2022-08-20T12:30:53;10.77;;;4.63;;
5953;SDS011;3002;42.642;24.812;2022-08-20T12:33:19;17.23;;;5.20;;
5953;SDS011;3002;42.642;24.812;2022-08-20T12:35:44;10.10;;;4.37;;
5953;SDS011;3002;42.642;24.812;2022-08-20T12:38:09;15.00;;;4.57;;
5953;SDS011;3002;42.642;24.812;2022-08-20T12:40:35;13.93;;;5.37;;
5953;SDS011;3002;42.642;24.812;2022-08-20T12:43:01;13.77;;;4.40;;
5953;SDS011;3002;42.642;24.812;2022-08-20T12:45:27;14.40;;;5.40;;
5953;SDS011;3002;42.642;24.812;2022-08-20T12:47:52;10.10;;;4.53;;
5953;SDS011;3002;42.642;24.812;2022-08-20T12:50:24;10.30;;;3.90;;
5953;SDS011;3002;42.642;24.812;2022-08-20T12:52:50;12.20;;;5.20;;
5953;SDS011;3002;42.642;24.812;2022-08-20T12:55:16;9.30;;;4.67;;
5953;SDS011;3002;42.642;24.812;2022-08-20T12:57:45;17.57;;;4.70;;
5953;SDS011;3002;42.642;24.812;2022-08-20T13:00:15;14.63;;;4.93;;
5953;SDS011;3002;42.642;24.812;2022-08-20T13:02:40;25.57;;;5.60;;
5953;SDS011;3002;42.642;24.812;2022-08-20T13:05:06;10.53;;;4.37;;
5953;SDS011;3002;42.642;24.812;2022-08-20T13:07:32;11.60;;;4.90;;
5953;SDS011;3002;42.642;24.812;2022-08-20T13:09:58;10.03;;;4.30;;
5953;SDS011;3002;42.642;24.812;2022-08-20T13:12:23;18.10;;;4.77;;
5953;SDS011;3002;42.642;24.812;2022-08-20T13:14:49;19.20;;;4.57;;
5953;SDS011;3002;42.642;24.812;2022-08-20T13:17:15;18.43;;;5.23;;
5953;SDS011;3002;42.642;24.812;2022-08-20T13:19:40;18.33;;;5.20;;
5953;SDS011;3002;42.642;24.812;2022-08-20T13:22:08;13.50;;;5.17;;
5953;SDS011;3002;42.642;24.812;2022-08-20T13:24:33;18.13;;;5.77;;
5953;SDS011;3002;42.642;24.812;2022-08-20T13:27:02;12.53;;;5.20;;
5953;SDS011;3002;42.642;24.812;2022-08-20T13:29:28;17.30;;;5.87;;
5953;SDS011;3002;42.642;24.812;2022-08-20T13:31:53;19.77;;;8.00;;
5953;SDS011;3002;42.642;24.812;2022-08-20T13:34:19;17.30;;;5.10;;
5953;SDS011;3002;42.642;24.812;2022-08-20T13:36:44;12.13;;;5.40;;
5953;SDS011;3002;42.642;24.812;2022-08-20T13:39:09;17.93;;;6.23;;
5953;SDS011;3002;42.642;24.812;2022-08-20T13:41:35;16.13;;;5.30;;
5953;SDS011;3002;42.642;24.812;2022-08-20T13:44:00;18.30;;;5.60;;
5953;SDS011;3002;42.642;24.812;2022-08-20T13:46:25;11.63;;;5.20;;
5953;SDS011;3002;42.642;24.812;2022-08-20T13:48:51;13.53;;;5.00;;
5953;SDS011;3002;42.642;24.812;2022-08-20T13:51:16;15.87;;;5.13;;
5953;SDS011;3002;42.642;24.812;2022-08-20T13:53:41;16.70;;;5.23;;
5953;SDS011;3002;42.642;24.812;2022-08-20T13:56:07;13.00;;;4.47;;
5953;SDS011;3002;42.642;24.812;2022-08-20T13:58:32;14.60;;;5.40;;
5953;SDS011;3002;42.642;24.812;2022-08-20T14:00:57;22.13;;;6.30;;
5953;SDS011;3002;42.642;24.812;2022-08-20T14:03:23;17.63;;;5.43;;
5953;SDS011;3002;42.642;24.812;2022-08-20T14:05:48;20.67;;;6.17;;
5953;SDS011;3002;42.642;24.812;2022-08-20T14:08:15;22.00;;;5.20;;
5953;SDS011;3002;42.642;24.812;2022-08-20T14:10:41;11.63;;;5.20;;
5953;SDS011;3002;42.642;24.812;2022-08-20T14:13:07;14.93;;;5.40;;
5953;SDS011;3002;42.642;24.812;2022-08-20T14:15:33;25.23;;;8.13;;
5953;SDS011;3002;42.642;24.812;2022-08-20T14:17:59;12.10;;;5.10;;
5953;SDS011;3002;42.642;24.812;2022-08-20T14:20:25;14.47;;;5.27;;
5953;SDS011;3002;42.642;24.812;2022-08-20T14:22:51;12.13;;;4.60;;
5953;SDS011;3002;42.642;24.812;2022-08-20T14:25:17;17.23;;;5.33;;
5953;SDS011;3002;42.642;24.812;2022-08-20T14:27:43;20.93;;;6.10;;
5953;SDS011;3002;42.642;24.812;2022-08-20T14:30:10;48.40;;;27.80;;
5953;SDS011;3002;42.642;24.812;2022-08-20T14:32:36;43.37;;;18.87;;
5953;SDS011;3002;42.642;24.812;2022-08-20T14:35:01;15.73;;;5.30;;
5953;SDS011;3002;42.642;24.812;2022-08-20T14:37:28;18.10;;;5.90;;
5953;SDS011;3002;42.642;24.812;2022-08-20T14:39:55;14.90;;;6.07;;
5953;SDS011;3002;42.642;24.812;2022-08-20T14:42:21;22.90;;;6.70;;
5953;SDS011;3002;42.642;24.812;2022-08-20T14:44:48;18.20;;;5.60;;
5953;SDS011;3002;42.642;24.812;2022-08-20T14:47:17;21.57;;;5.80;;
5953;SDS011;3002;42.642;24.812;2022-08-20T14:49:43;14.70;;;5.70;;
5953;SDS011;3002;42.642;24.812;2022-08-20T14:52:10;27.00;;;6.27;;
5953;SDS011;3002;42.642;24.812;2022-08-20T14:54:36;11.33;;;5.17;;